createdAt,value
2023-01-26T00:02:03.414Z,78.70
2023-01-26T00:04:31.800Z,77.50
2023-01-26T00:07:03.400Z,81.20
2023-01-26T00:09:32.797Z,78.00
2023-01-26T00:12:01.223Z,77.00
2023-01-26T00:14:49.536Z,80.30
2023-01-26T00:17:26.366Z,77.30
2023-01-26T00:19:57.438Z,75.70
2023-01-26T00:22:27.805Z,76.60
2023-01-26T00:24:56.265Z,83.60
2023-01-26T00:27:24.580Z,73.80
2023-01-26T00:29:53.880Z,68.50
2023-01-26T00:32:23.060Z,74.10
2023-01-26T00:34:51.343Z,69.20
2023-01-26T00:37:19.631Z,65.20
2023-01-26T00:39:47.929Z,64.00
2023-01-26T00:42:16.385Z,70.40
2023-01-26T00:44:44.979Z,62.80
2023-01-26T00:47:14.966Z,67.20
2023-01-26T00:49:43.525Z,66.80
2023-01-26T00:52:14.249Z,70.60
2023-01-26T00:54:42.791Z,66.10
2023-01-26T00:57:11.334Z,55.40
2023-01-26T00:59:39.550Z,62.90
2023-01-26T01:02:08.000Z,66.30
2023-01-26T01:04:36.667Z,68.60
2023-01-26T01:07:05.520Z,60.70
2023-01-26T01:09:34.637Z,58.00
2023-01-26T01:12:03.134Z,66.40
2023-01-26T01:14:31.585Z,73.10
2023-01-26T01:17:00.369Z,66.40
2023-01-26T01:19:29.079Z,67.30
2023-01-26T01:21:57.724Z,59.20
2023-01-26T01:24:26.015Z,65.80
2023-01-26T01:26:54.380Z,66.00
2023-01-26T01:29:22.546Z,60.90
2023-01-26T01:31:51.131Z,66.90
2023-01-26T01:34:19.356Z,63.80
2023-01-26T01:36:47.563Z,62.30
2023-01-26T01:41:43.938Z,58.70
2023-01-26T01:44:18.988Z,65.20
2023-01-26T01:47:16.619Z,67.30
2023-01-26T01:49:51.064Z,60.80
2023-01-26T01:52:26.590Z,60.00
2023-01-26T01:55:08.994Z,61.90
2023-01-26T01:57:46.321Z,60.30
2023-01-26T02:00:19.963Z,60.40
2023-01-26T02:03:11.843Z,66.20
2023-01-26T02:05:59.755Z,66.80
2023-01-26T02:08:35.231Z,59.20
2023-01-26T02:11:09.537Z,67.20
2023-01-26T02:13:39.294Z,62.60
2023-01-26T02:16:07.500Z,66.60
2023-01-26T02:18:36.164Z,67.20
2023-01-26T02:21:11.489Z,69.60
2023-01-26T02:24:03.026Z,57.70
2023-01-26T02:26:36.872Z,65.90
2023-01-26T02:29:08.975Z,66.00
2023-01-26T02:31:40.707Z,59.10
2023-01-26T02:34:08.990Z,64.90
2023-01-26T02:36:37.899Z,64.70
2023-01-26T02:39:12.212Z,62.90
2023-01-26T02:41:59.704Z,59.70
2023-01-26T02:44:30.651Z,61.50
2023-01-26T02:46:58.824Z,69.90
2023-01-26T02:49:45.699Z,66.00
2023-01-26T02:52:15.940Z,70.70
2023-01-26T02:55:05.786Z,65.70
2023-01-26T02:57:35.387Z,71.40
2023-01-26T03:00:06.476Z,70.90
2023-01-26T03:02:35.071Z,61.10
2023-01-26T03:05:05.020Z,65.90
2023-01-26T03:07:33.430Z,67.40
2023-01-26T03:10:01.936Z,67.50
2023-01-26T03:12:30.447Z,65.80
2023-01-26T03:15:16.918Z,71.40
2023-01-26T03:17:45.458Z,69.20
2023-01-26T03:20:32.767Z,64.00
2023-01-26T03:23:36.326Z,65.60
2023-01-26T03:26:23.974Z,64.30
2023-01-26T03:28:52.521Z,72.20
2023-01-26T03:31:21.032Z,71.10
2023-01-26T03:33:49.264Z,74.70
2023-01-26T03:36:17.810Z,73.00
2023-01-26T03:38:46.087Z,73.90
2023-01-26T03:41:33.255Z,73.80
2023-01-26T03:44:19.806Z,75.80
2023-01-26T03:47:07.677Z,70.50
2023-01-26T03:49:54.653Z,81.30
2023-01-26T03:52:41.529Z,78.90
2023-01-26T03:55:28.514Z,68.30
2023-01-26T03:57:56.683Z,68.40
2023-01-26T04:00:24.805Z,84.30
2023-01-26T04:03:12.069Z,83.50
2023-01-26T04:06:15.491Z,74.90
2023-01-26T04:08:48.166Z,71.90
2023-01-26T04:11:16.389Z,81.50
2023-01-26T04:14:03.406Z,76.50
2023-01-26T04:16:52.968Z,80.90
2023-01-26T04:19:40.045Z,78.90
2023-01-26T04:22:08.743Z,90.80
2023-01-26T04:24:38.053Z,75.40
2023-01-26T04:27:06.210Z,87.40
2023-01-26T04:29:37.913Z,80.60
2023-01-26T04:32:06.402Z,83.00
2023-01-26T04:34:35.662Z,82.40
2023-01-26T04:37:09.673Z,76.70
2023-01-26T04:39:45.673Z,93.50
2023-01-26T04:42:14.252Z,84.80
2023-01-26T04:44:42.754Z,85.60
2023-01-26T04:47:11.028Z,98.60
2023-01-26T04:49:39.972Z,92.60
2023-01-26T04:52:08.965Z,88.00
2023-01-26T04:54:37.451Z,85.80
2023-01-26T04:57:06.197Z,84.80
2023-01-26T04:59:35.947Z,83.60
2023-01-26T05:02:05.212Z,88.80
2023-01-26T05:04:33.872Z,88.50
2023-01-26T05:07:03.729Z,92.80
2023-01-26T05:09:32.379Z,99.70
2023-01-26T05:12:33.592Z,102.30
2023-01-26T05:15:25.364Z,88.00
2023-01-26T05:18:05.037Z,100.30
2023-01-26T05:20:45.364Z,111.30
2023-01-26T05:23:24.342Z,98.50
2023-01-26T05:26:22.022Z,119.10
2023-01-26T05:28:59.680Z,99.80
2023-01-26T05:31:28.086Z,88.60
2023-01-26T05:33:56.482Z,108.20
2023-01-26T05:36:25.607Z,88.70
2023-01-26T05:38:53.783Z,121.30
2023-01-26T05:41:25.471Z,147.80
2023-01-26T05:44:14.453Z,137.80
2023-01-26T05:46:46.031Z,118.90
2023-01-26T05:49:14.273Z,123.40
2023-01-26T05:51:42.789Z,116.90
2023-01-26T05:54:11.427Z,107.50
2023-01-26T05:56:39.817Z,102.00
2023-01-26T05:59:08.886Z,118.90
2023-01-26T06:01:37.522Z,107.90
2023-01-26T06:04:07.299Z,107.40
2023-01-26T06:06:57.273Z,95.00
2023-01-26T06:09:30.918Z,99.70
2023-01-26T06:12:25.242Z,91.40
2023-01-26T06:14:53.422Z,97.40
2023-01-26T06:17:22.141Z,104.10
2023-01-26T06:19:55.280Z,89.00
2023-01-26T06:22:23.816Z,90.90
2023-01-26T06:24:52.815Z,105.60
2023-01-26T06:27:21.784Z,96.80
2023-01-26T06:29:51.847Z,100.30
2023-01-26T06:32:20.305Z,86.10
2023-01-26T06:34:53.520Z,96.80
2023-01-26T06:37:22.080Z,96.50
2023-01-26T06:39:52.206Z,89.20
2023-01-26T06:42:20.387Z,86.80
2023-01-26T06:44:48.513Z,89.00
2023-01-26T06:47:18.174Z,106.50
2023-01-26T06:49:46.620Z,99.40
2023-01-26T06:52:27.321Z,93.00
2023-01-26T06:55:00.576Z,101.10
2023-01-26T06:57:46.896Z,96.60
2023-01-26T07:00:34.282Z,69.60
2023-01-26T07:03:16.595Z,87.00
2023-01-26T07:05:45.266Z,102.50
2023-01-26T07:08:13.732Z,113.10
2023-01-26T07:10:42.171Z,102.20
2023-01-26T07:13:10.707Z,110.50
2023-01-26T07:15:39.175Z,96.70
2023-01-26T07:18:07.712Z,93.90
2023-01-26T07:20:37.167Z,98.40
2023-01-26T07:23:05.313Z,94.10
2023-01-26T07:25:33.423Z,92.20
2023-01-26T07:28:01.534Z,103.30
2023-01-26T07:30:30.774Z,92.60
2023-01-26T07:33:00.692Z,95.70
2023-01-26T07:35:32.401Z,89.10
2023-01-26T07:38:00.567Z,104.60
2023-01-26T07:40:28.766Z,86.30
2023-01-26T07:42:59.907Z,85.40
2023-01-26T07:45:53.799Z,86.10
2023-01-26T07:48:29.949Z,86.10
2023-01-26T07:51:00.135Z,83.20
2023-01-26T07:53:30.180Z,97.90
2023-01-26T07:56:16.131Z,93.80
2023-01-26T07:58:46.446Z,95.20
2023-01-26T08:01:15.750Z,79.60
2023-01-26T08:03:45.697Z,86.40
2023-01-26T08:06:15.554Z,76.10
2023-01-26T08:08:45.226Z,71.70
2023-01-26T08:11:14.614Z,67.90
2023-01-26T08:13:42.777Z,81.40
2023-01-26T08:16:12.858Z,77.10
2023-01-26T08:18:43.448Z,69.70
2023-01-26T08:21:13.439Z,70.90
2023-01-26T08:23:41.874Z,72.70
2023-01-26T08:26:13.666Z,76.20
2023-01-26T08:28:42.052Z,78.00
2023-01-26T08:31:13.304Z,81.50
2023-01-26T08:33:42.817Z,71.30
2023-01-26T08:36:13.183Z,85.10
2023-01-26T08:38:42.536Z,81.10
2023-01-26T08:41:11.307Z,77.10
2023-01-26T08:43:40.117Z,77.70
2023-01-26T08:46:08.718Z,76.60
2023-01-26T08:48:37.610Z,76.60
2023-01-26T08:51:07.561Z,88.00
2023-01-26T08:53:37.755Z,75.20
2023-01-26T08:56:08.182Z,86.80
2023-01-26T08:58:37.259Z,81.90
2023-01-26T09:01:06.606Z,82.80
2023-01-26T09:03:34.951Z,83.60
2023-01-26T09:06:04.838Z,77.60
2023-01-26T09:08:33.447Z,83.80
2023-01-26T09:11:02.192Z,75.00
2023-01-26T09:13:30.370Z,68.90
2023-01-26T09:15:58.772Z,65.80
2023-01-26T09:18:26.891Z,80.50
2023-01-26T09:20:56.013Z,82.40
2023-01-26T09:23:24.164Z,67.40
2023-01-26T09:25:55.446Z,73.90
2023-01-26T09:28:23.621Z,71.90
2023-01-26T09:30:51.840Z,72.50
2023-01-26T09:33:21.674Z,70.90
2023-01-26T09:35:50.370Z,71.60
2023-01-26T09:38:18.470Z,67.60
2023-01-26T09:40:58.903Z,73.90
2023-01-26T09:43:38.762Z,77.40
2023-01-26T09:46:22.394Z,76.40
2023-01-26T09:49:11.289Z,66.70
2023-01-26T09:51:58.182Z,67.30
2023-01-26T09:54:37.025Z,63.70
2023-01-26T09:57:14.782Z,69.20
2023-01-26T09:59:46.084Z,62.30
2023-01-26T10:02:36.101Z,67.40
2023-01-26T10:05:32.273Z,66.80
2023-01-26T10:08:05.499Z,64.50
2023-01-26T10:10:39.509Z,62.30
2023-01-26T10:15:43.882Z,68.20
2023-01-26T10:18:37.379Z,64.30
2023-01-26T10:21:07.736Z,66.00
2023-01-26T10:23:36.259Z,59.10
2023-01-26T10:26:17.117Z,62.40
2023-01-26T10:28:47.903Z,61.90
2023-01-26T10:31:25.747Z,59.10
2023-01-26T10:34:13.052Z,65.20
2023-01-26T10:36:44.065Z,64.20
2023-01-26T10:39:15.682Z,68.90
2023-01-26T10:42:04.409Z,71.30
2023-01-26T10:44:35.181Z,68.80
2023-01-26T10:47:17.055Z,59.30
2023-01-26T10:49:45.391Z,64.20
2023-01-26T10:52:18.095Z,58.30
2023-01-26T10:54:46.751Z,62.50
2023-01-26T10:57:19.817Z,52.90
2023-01-26T11:00:08.489Z,55.30
2023-01-26T11:02:37.341Z,51.10
2023-01-26T11:05:08.600Z,60.00
2023-01-26T11:07:45.364Z,56.20
2023-01-26T11:10:37.253Z,58.30
2023-01-26T11:13:22.592Z,52.60
2023-01-26T11:16:04.166Z,60.20
2023-01-26T11:18:32.269Z,62.40
2023-01-26T11:21:06.733Z,61.30
2023-01-26T11:23:51.961Z,56.30
2023-01-26T11:26:50.140Z,57.80
2023-01-26T11:29:52.651Z,65.00
2023-01-26T11:32:25.324Z,58.40
2023-01-26T11:35:05.213Z,66.00
2023-01-26T11:37:36.627Z,66.90
2023-01-26T11:40:23.327Z,61.80
2023-01-26T11:43:16.323Z,57.90
2023-01-26T11:46:02.921Z,59.80
2023-01-26T11:48:37.452Z,58.60
2023-01-26T11:51:29.804Z,58.30
2023-01-26T11:54:47.221Z,54.40
2023-01-26T11:57:21.217Z,55.40
2023-01-26T12:00:01.336Z,55.40
2023-01-26T12:02:38.961Z,57.00
2023-01-26T12:05:25.071Z,55.00
2023-01-26T12:08:05.073Z,57.10
2023-01-26T12:10:36.763Z,53.70
2023-01-26T12:13:16.588Z,56.40
2023-01-26T12:15:52.551Z,55.60
2023-01-26T12:18:50.674Z,50.50
2023-01-26T12:21:22.872Z,49.00
2023-01-26T12:24:00.299Z,53.50
2023-01-26T12:26:33.963Z,60.70
2023-01-26T12:29:11.124Z,57.30
2023-01-26T12:31:49.417Z,55.80
2023-01-26T12:34:19.532Z,58.20
2023-01-26T12:37:04.604Z,62.50
2023-01-26T12:39:45.159Z,56.00
2023-01-26T12:42:56.632Z,59.50
2023-01-26T12:45:32.721Z,59.60
2023-01-26T12:48:27.950Z,65.30
2023-01-26T12:51:09.208Z,62.80
2023-01-26T12:53:54.712Z,62.60
2023-01-26T12:56:35.369Z,61.60
2023-01-26T12:59:28.319Z,57.10
2023-01-26T13:02:34.235Z,49.10
2023-01-26T13:05:04.160Z,51.00
2023-01-26T13:07:40.338Z,51.00
2023-01-26T13:10:15.445Z,53.90
2023-01-26T13:12:49.048Z,50.30
2023-01-26T13:15:20.252Z,48.30
2023-01-26T13:17:50.167Z,48.10
2023-01-26T13:20:43.382Z,45.40
2023-01-26T13:23:59.652Z,49.50
2023-01-26T13:26:33.989Z,47.10
2023-01-26T13:29:36.290Z,48.90
2023-01-26T13:32:10.430Z,45.00
2023-01-26T13:34:46.574Z,49.10
2023-01-26T13:37:14.817Z,48.00
2023-01-26T13:39:47.301Z,49.70
2023-01-26T13:42:22.952Z,48.20
2023-01-26T13:44:59.026Z,47.10
2023-01-26T13:47:38.354Z,46.30
2023-01-26T13:50:25.843Z,45.20
2023-01-26T13:52:54.038Z,50.40
2023-01-26T13:55:29.058Z,45.90
2023-01-26T13:58:18.349Z,44.70
2023-01-26T14:01:11.536Z,48.50
2023-01-26T14:03:39.798Z,46.80
2023-01-26T14:06:13.195Z,51.60
2023-01-26T14:09:03.072Z,45.90
2023-01-26T14:11:33.539Z,48.60
2023-01-26T14:14:02.847Z,48.40
2023-01-26T14:16:37.765Z,51.90
2023-01-26T14:19:05.959Z,55.50
2023-01-26T14:21:46.033Z,52.60
2023-01-26T14:24:14.648Z,52.40
2023-01-26T14:26:43.863Z,51.60
2023-01-26T14:29:19.567Z,55.40
2023-01-26T14:31:49.333Z,58.00
2023-01-26T14:34:24.095Z,61.00
2023-01-26T14:37:05.841Z,58.60
2023-01-26T14:39:34.354Z,57.80
2023-01-26T14:42:04.254Z,51.70
2023-01-26T14:44:32.681Z,53.20
2023-01-26T14:47:05.860Z,55.50
2023-01-26T14:49:43.482Z,54.60
2023-01-26T14:52:45.898Z,58.90
2023-01-26T14:55:28.388Z,54.30
2023-01-26T14:57:58.706Z,54.70
2023-01-26T15:00:36.286Z,57.00
2023-01-26T15:03:11.302Z,59.30
2023-01-26T15:05:43.331Z,54.80
2023-01-26T15:08:23.904Z,59.20
2023-01-26T15:11:19.928Z,61.10
2023-01-26T15:13:54.275Z,56.30
2023-01-26T15:16:24.817Z,61.10
2023-01-26T15:19:01.282Z,79.70
2023-01-26T15:21:34.213Z,67.00
2023-01-26T15:24:04.053Z,68.00
2023-01-26T15:26:36.757Z,73.60
2023-01-26T15:29:16.824Z,70.20
2023-01-26T15:31:52.633Z,61.90
2023-01-26T15:34:42.399Z,64.50
2023-01-26T15:37:30.265Z,64.60
2023-01-26T15:39:58.946Z,66.30
2023-01-26T15:42:30.345Z,57.40
2023-01-26T15:44:58.807Z,60.40
2023-01-26T15:47:27.162Z,61.60
2023-01-26T15:49:58.434Z,64.00
2023-01-26T15:52:30.629Z,64.10
2023-01-26T15:54:59.346Z,68.10
2023-01-26T15:57:27.697Z,66.90
2023-01-26T15:59:56.006Z,70.90
2023-01-26T16:02:24.458Z,64.30
2023-01-26T16:04:53.126Z,68.10
2023-01-26T16:07:21.723Z,67.40
2023-01-26T16:09:52.119Z,74.60
2023-01-26T16:12:32.296Z,74.60
2023-01-26T16:15:01.437Z,65.10
2023-01-26T16:17:30.127Z,66.10
2023-01-26T16:19:58.693Z,72.50
2023-01-26T16:22:27.019Z,64.90
2023-01-26T16:24:55.519Z,69.20
2023-01-26T16:27:23.886Z,62.80
2023-01-26T16:29:52.358Z,67.80
2023-01-26T16:32:29.118Z,62.00
2023-01-26T16:34:57.520Z,62.50
2023-01-26T16:37:25.802Z,66.30
2023-01-26T16:39:54.086Z,60.00
2023-01-26T16:42:24.021Z,63.20
2023-01-26T16:44:52.390Z,64.20
2023-01-26T16:47:20.706Z,62.90
2023-01-26T16:49:50.281Z,59.70
2023-01-26T16:52:19.280Z,58.70
2023-01-26T16:54:50.176Z,64.50
2023-01-26T16:57:18.542Z,64.00
2023-01-26T16:59:46.926Z,65.10
2023-01-26T17:02:27.851Z,72.00
2023-01-26T17:04:56.589Z,63.70
2023-01-26T17:07:24.946Z,61.60
2023-01-26T17:09:53.474Z,62.00
2023-01-26T17:12:21.964Z,61.20
2023-01-26T17:14:50.568Z,65.90
2023-01-26T17:17:19.204Z,59.70
2023-01-26T17:19:47.483Z,62.60
2023-01-26T17:22:15.991Z,64.30
2023-01-26T17:24:44.591Z,61.90
2023-01-26T17:27:13.547Z,63.10
2023-01-26T17:29:42.539Z,60.90
2023-01-26T17:32:11.571Z,62.50
2023-01-26T17:34:40.147Z,60.80
2023-01-26T17:37:08.422Z,63.30
2023-01-26T17:39:36.755Z,71.30
2023-01-26T17:42:05.254Z,76.50
2023-01-26T17:44:33.705Z,78.10
2023-01-26T17:47:02.085Z,61.80
2023-01-26T17:49:30.628Z,69.20
2023-01-26T17:51:58.980Z,64.90
2023-01-26T17:54:27.442Z,69.30
2023-01-26T17:56:55.838Z,62.90
2023-01-26T17:59:25.441Z,69.60
2023-01-26T18:01:54.070Z,72.00
2023-01-26T18:04:22.385Z,71.80
2023-01-26T18:06:50.694Z,66.40
2023-01-26T18:09:19.185Z,69.30
2023-01-26T18:11:48.554Z,70.90
2023-01-26T18:14:17.059Z,70.10
2023-01-26T18:16:45.482Z,71.40
2023-01-26T18:19:14.355Z,75.70
2023-01-26T18:21:42.817Z,79.80
2023-01-26T18:24:11.228Z,84.70
2023-01-26T18:26:40.195Z,85.20
2023-01-26T18:29:09.007Z,77.40
2023-01-26T18:31:42.291Z,83.60
2023-01-26T18:34:11.957Z,78.40
2023-01-26T18:36:40.315Z,69.80
2023-01-26T18:39:12.972Z,75.00
2023-01-26T18:41:43.471Z,69.40
2023-01-26T18:44:11.846Z,79.00
2023-01-26T18:46:40.234Z,77.80
2023-01-26T18:49:10.165Z,78.70
2023-01-26T18:51:38.890Z,75.80
2023-01-26T18:54:09.868Z,82.00
2023-01-26T18:56:38.621Z,82.10
2023-01-26T18:59:09.991Z,89.10
2023-01-26T19:01:39.588Z,95.40
2023-01-26T19:04:08.166Z,94.10
2023-01-26T19:06:36.578Z,101.80
2023-01-26T19:09:07.648Z,95.10
2023-01-26T19:11:39.800Z,100.20
2023-01-26T19:14:08.817Z,84.80
2023-01-26T19:16:38.242Z,84.80
2023-01-26T19:19:06.586Z,89.10
2023-01-26T19:21:35.093Z,84.30
2023-01-26T19:24:06.325Z,82.30
2023-01-26T19:26:35.163Z,81.90
2023-01-26T19:29:03.876Z,90.10
2023-01-26T19:31:32.406Z,92.90
2023-01-26T19:34:02.734Z,92.20
2023-01-26T19:36:34.804Z,94.90
2023-01-26T19:39:04.640Z,93.30
2023-01-26T19:41:33.870Z,91.80
2023-01-26T19:44:02.408Z,97.20
2023-01-26T19:46:30.781Z,108.00
2023-01-26T19:48:59.292Z,103.80
2023-01-26T19:51:28.291Z,96.20
2023-01-26T19:53:59.449Z,88.10
2023-01-26T19:56:33.074Z,91.40
2023-01-26T19:59:04.907Z,91.50
2023-01-26T20:01:34.217Z,95.40
2023-01-26T20:04:09.551Z,110.90
2023-01-26T20:06:38.222Z,105.70
2023-01-26T20:09:08.039Z,101.20
2023-01-26T20:11:36.622Z,110.40
2023-01-26T20:14:08.897Z,116.10
2023-01-26T20:16:40.104Z,104.30
2023-01-26T20:19:08.553Z,106.20
2023-01-26T20:21:38.940Z,97.30
2023-01-26T20:24:11.222Z,98.50
2023-01-26T20:26:40.039Z,107.90
2023-01-26T20:29:08.403Z,109.70
2023-01-26T20:31:36.769Z,99.50
2023-01-26T20:34:05.340Z,103.30
2023-01-26T20:36:34.335Z,109.60
2023-01-26T20:39:03.230Z,98.60
2023-01-26T20:41:33.323Z,115.90
2023-01-26T20:44:04.818Z,99.10
2023-01-26T20:46:39.199Z,101.30
2023-01-26T20:49:10.872Z,112.30
2023-01-26T20:51:42.737Z,110.50
2023-01-26T20:54:13.485Z,116.60
2023-01-26T20:56:42.418Z,102.50
2023-01-26T20:59:11.576Z,113.80
2023-01-26T21:01:40.036Z,117.20
2023-01-26T21:04:08.357Z,119.00
2023-01-26T21:06:36.759Z,111.10
2023-01-26T21:09:05.625Z,117.00
2023-01-26T21:11:34.965Z,122.00
2023-01-26T21:14:04.333Z,115.00
2023-01-26T21:16:33.348Z,105.70
2023-01-26T21:19:01.746Z,106.80
2023-01-26T21:21:30.302Z,109.50
2023-01-26T21:23:59.498Z,110.30
2023-01-26T21:26:30.877Z,107.20
2023-01-26T21:29:00.361Z,109.60
2023-01-26T21:31:31.182Z,115.90
2023-01-26T21:34:00.428Z,109.30
2023-01-26T21:36:34.413Z,111.10
2023-01-26T21:39:06.920Z,103.70
2023-01-26T21:41:54.336Z,113.40
2023-01-26T21:44:30.739Z,110.10
2023-01-26T21:47:02.005Z,117.90
2023-01-26T21:49:30.784Z,118.70
2023-01-26T21:52:18.487Z,117.00
2023-01-26T21:54:46.786Z,110.90
2023-01-26T21:57:34.262Z,109.80
2023-01-26T22:00:03.367Z,110.30
2023-01-26T22:02:32.969Z,109.70
2023-01-26T22:05:01.405Z,105.60
2023-01-26T22:07:30.011Z,102.80
2023-01-26T22:09:58.382Z,110.00
2023-01-26T22:12:26.739Z,123.70
2023-01-26T22:14:55.016Z,119.50
2023-01-26T22:17:23.524Z,113.80
2023-01-26T22:19:51.866Z,125.00
2023-01-26T22:22:20.365Z,121.60
2023-01-26T22:24:48.761Z,123.30
2023-01-26T22:27:17.314Z,138.30
2023-01-26T22:29:46.202Z,136.90
2023-01-26T22:32:14.502Z,123.10
2023-01-26T22:34:42.802Z,115.30
2023-01-26T22:37:11.068Z,123.70
2023-01-26T22:39:39.522Z,134.30
2023-01-26T22:42:07.853Z,137.20
2023-01-26T22:44:36.573Z,126.80
2023-01-26T22:47:04.991Z,134.90
2023-01-26T22:49:33.495Z,138.00
2023-01-26T22:52:01.821Z,137.30
2023-01-26T22:54:30.222Z,121.40
2023-01-26T22:56:58.488Z,118.80
2023-01-26T22:59:26.922Z,123.80
2023-01-26T23:01:55.326Z,138.00
2023-01-26T23:04:23.708Z,129.50
2023-01-26T23:06:52.081Z,138.20
2023-01-26T23:09:20.671Z,140.70
2023-01-26T23:12:03.007Z,140.40
2023-01-26T23:14:32.131Z,144.00
2023-01-26T23:17:00.779Z,146.70
2023-01-26T23:19:30.259Z,149.20
2023-01-26T23:21:58.653Z,128.60
2023-01-26T23:24:27.064Z,137.70
2023-01-26T23:26:58.359Z,144.90
2023-01-26T23:29:26.849Z,142.00
2023-01-26T23:31:55.440Z,139.10
2023-01-26T23:34:23.994Z,141.30
2023-01-26T23:36:52.325Z,143.30
2023-01-26T23:39:20.717Z,150.40
2023-01-26T23:41:49.116Z,137.90
2023-01-26T23:44:17.724Z,142.10
2023-01-26T23:46:46.093Z,141.80
2023-01-26T23:49:14.478Z,146.30
2023-01-26T23:51:43.127Z,154.20
2023-01-26T23:54:11.440Z,151.80
2023-01-26T23:56:39.772Z,145.10
2023-01-26T23:59:08.059Z,147.20
